PST,Max TemperatureF,Mean TemperatureF,Min TemperatureF,Max Dew PointF,MeanDew PointF,Min DewpointF,Max Humidity, Mean Humidity, Min Humidity, Max Sea Level PressureIn, Mean Sea Level PressureIn, Min Sea Level PressureIn, Max VisibilityMiles, Mean VisibilityMiles, Min VisibilityMiles, Max Wind SpeedMPH, Mean Wind SpeedMPH, Max Gust SpeedMPH,PrecipitationIn, CloudCover, Events, WindDirDegrees
2012-12-1,54,51,47,46,44,42,93,80,66,29.75,29.61,29.33,10,10,4,17,7,28,0.59,7,Rain,142
2012-12-2,51,49,47,45,44,41,93,81,68,29.93,29.65,29.26,10,10,4,16,8,23,0.39,7,Rain,171
2012-12-3,54,51,48,45,44,43,86,76,66,30.05,29.95,29.69,10,9,4,15,7,22,0.36,8,Rain,151
2012-12-4,56,52,47,54,49,44,100,90,80,29.97,29.78,29.62,10,6,2,15,3,23,0.85,8,Rain,148
2012-12-5,51,43,35,42,39,34,93,75,56,30.25,30.19,30.00,10,10,7,12,1,15,0.03,4,Rain,269
2012-12-6,49,41,32,43,39,32,96,84,71,30.25,30.20,30.16,10,9,1,12,5,18,0.01,7,Rain,193
2012-12-7,50,46,42,45,41,35,86,78,70,30.23,30.16,30.10,10,10,5,13,5,21,0.03,7,Rain,223
2012-12-8,47,41,35,40,38,34,93,82,71,30.38,30.30,30.23,10,9,2,8,1,13,0.11,8,Rain,331
2012-12-9,49,45,40,46,40,37,93,88,83,30.41,30.38,30.35,10,8,2,8,4,10,0.08,8,Rain,111
2012-12-10,53,47,40,46,43,39,100,86,71,30.43,30.37,30.14,10,9,2,6,1,9,0.00,7,,309
2012-12-11,47,44,40,43,41,39,92,87,82,30.11,29.79,29.63,10,10,8,13,5,23,0.14,8,Rain,155
2012-12-12,47,44,41,41,39,37,96,86,76,30.03,29.89,29.70,10,10,4,7,1,12,0.23,8,Rain,161
2012-12-13,47,43,39,40,37,35,89,77,65,30.06,29.98,29.86,10,10,10,8,3,10,T,6,Rain,129
2012-12-14,45,40,35,38,37,34,92,84,76,29.99,29.90,29.84,10,8,4,7,3,10,0.36,7,Rain,120
2012-12-15,41,39,37,37,35,32,92,86,79,29.95,29.80,29.64,10,9,4,16,4,20,0.33,6,Rain,130
2012-12-16,51,45,38,46,40,35,89,80,71,29.84,29.53,29.16,10,9,5,21,8,36,0.74,8,Rain,168
2012-12-17,50,44,37,40,35,32,85,78,70,30.00,29.80,29.20,10,10,6,22,8,37,0.24,7,Rain,224
2012-12-18,41,38,35,34,33,32,92,86,79,30.07,30.02,29.98,10,10,9,12,6,17,0.05,7,Rain,186
2012-12-19,51,44,37,40,36,32,92,73,54,30.04,29.83,29.62,10,9,6,18,9,28,0.57,8,Rain,132
2012-12-20,45,38,31,41,36,30,96,88,79,29.84,29.75,29.61,10,8,1,17,6,25,0.82,7,Rain,159
2012-12-21,46,38,29,39,34,28,100,88,76,29.81,29.75,29.62,10,7,1,12,4,15,0.09,5,Rain,120
2012-12-22,49,44,39,40,37,35,92,77,61,29.80,29.66,29.55,10,10,9,21,7,35,0.14,8,Rain,143
2012-12-23,43,40,37,39,37,34,93,85,76,29.91,29.74,29.61,10,9,5,12,4,17,0.56,8,Rain,149
2012-12-24,46,42,38,39,37,36,92,81,70,30.21,30.12,29.92,10,10,10,9,3,13,0.04,7,Rain,142
2012-12-25,43,41,38,37,36,33,92,81,70,30.03,29.77,29.69,10,8,2,16,8,23,0.75,8,Rain,122
2012-12-26,41,39,37,38,37,35,100,93,85,30.04,29.87,29.72,10,9,2,10,4,15,0.13,8,Rain,120
2012-12-27,46,41,36,38,37,35,92,82,71,30.20,30.15,30.05,10,9,1,8,2,12,0.01,7,,139
2012-12-28,43,40,36,36,33,27,100,83,65,30.19,30.15,30.12,10,10,10,10,3,14,0.00,7,,122
2012-12-29,41,34,26,35,30,24,92,78,64,30.24,30.20,30.16,10,10,6,7,1,9,0.01,7,Rain,77
2012-12-30,44,34,23,34,29,21,92,77,62,30.33,30.29,30.24,10,9,3,6,1,8,0.00,3,,315
2012-12-31,35,30,24,31,28,23,96,83,69,30.46,30.35,30.28,10,7,2,9,2,13,0.01,6,Snow,78